createdAt,value
2023-05-25T00:00:53.771Z,99.90
2023-05-25T00:03:11.256Z,99.90
2023-05-25T00:05:38.731Z,99.90
2023-05-25T00:08:07.125Z,99.90
2023-05-25T00:10:35.465Z,99.90
2023-05-25T00:13:03.034Z,99.90
2023-05-25T00:15:30.686Z,99.90
2023-05-25T00:17:58.314Z,99.90
2023-05-25T00:20:25.879Z,99.90
2023-05-25T00:22:53.466Z,99.90
2023-05-25T00:25:21.038Z,99.90
2023-05-25T00:27:48.613Z,99.90
2023-05-25T00:30:16.221Z,99.90
2023-05-25T00:32:44.640Z,99.90
2023-05-25T00:35:12.136Z,99.90
2023-05-25T00:37:39.744Z,99.90
2023-05-25T00:40:07.429Z,99.90
2023-05-25T00:42:35.023Z,99.90
2023-05-25T00:45:02.663Z,99.90
2023-05-25T00:47:30.224Z,99.90
2023-05-25T00:49:57.790Z,99.90
2023-05-25T00:52:26.130Z,99.90
2023-05-25T00:54:53.715Z,99.90
2023-05-25T00:57:22.057Z,99.90
2023-05-25T00:59:52.609Z,99.90
2023-05-25T01:02:20.245Z,99.90
2023-05-25T01:04:47.763Z,99.90
2023-05-25T01:07:16.196Z,99.90
2023-05-25T01:09:43.768Z,99.90
2023-05-25T01:12:11.342Z,99.90
2023-05-25T01:14:38.956Z,99.90
2023-05-25T01:17:06.517Z,99.90
2023-05-25T01:19:34.104Z,99.90
2023-05-25T01:22:16.714Z,99.90
2023-05-25T01:24:49.750Z,99.90
2023-05-25T01:27:22.970Z,99.90
2023-05-25T01:29:50.542Z,99.90
2023-05-25T01:32:18.249Z,99.90
2023-05-25T01:34:45.714Z,99.90
2023-05-25T01:37:13.346Z,99.90
2023-05-25T01:39:40.914Z,99.90
2023-05-25T01:42:08.525Z,99.90
2023-05-25T01:44:36.109Z,99.90
2023-05-25T01:47:03.658Z,99.90
2023-05-25T01:49:58.582Z,99.90
2023-05-25T01:52:28.568Z,99.90
2023-05-25T01:54:56.085Z,99.90
2023-05-25T01:57:23.727Z,99.90
2023-05-25T01:59:51.322Z,99.90
2023-05-25T02:02:18.896Z,99.90
2023-05-25T02:04:46.550Z,99.90
2023-05-25T02:07:14.072Z,99.90
2023-05-25T02:09:41.712Z,99.90
2023-05-25T02:12:09.320Z,99.90
2023-05-25T02:14:36.891Z,99.90
2023-05-25T02:17:04.456Z,99.90
2023-05-25T02:19:32.082Z,99.90
2023-05-25T02:21:59.648Z,99.90
2023-05-25T02:24:27.283Z,99.90
2023-05-25T02:26:54.843Z,99.90
2023-05-25T02:29:22.428Z,99.90
2023-05-25T02:31:50.112Z,99.90
2023-05-25T02:34:17.634Z,99.90
2023-05-25T02:36:45.207Z,99.90
2023-05-25T02:39:12.766Z,99.90
2023-05-25T02:41:40.389Z,99.90
2023-05-25T02:44:07.946Z,99.90
2023-05-25T02:46:35.508Z,99.90
2023-05-25T02:49:03.164Z,99.90
2023-05-25T02:51:30.705Z,99.90
2023-05-25T02:53:58.269Z,99.90
2023-05-25T02:56:25.891Z,99.90
2023-05-25T02:58:54.237Z,99.90
2023-05-25T03:01:21.873Z,99.90
2023-05-25T03:03:49.511Z,99.90
2023-05-25T03:06:17.024Z,99.90
2023-05-25T03:08:44.598Z,99.90
2023-05-25T03:11:12.263Z,99.90
2023-05-25T03:13:39.832Z,99.90
2023-05-25T03:16:07.424Z,99.90
2023-05-25T03:18:34.992Z,99.90
2023-05-25T03:21:02.593Z,99.90
2023-05-25T03:23:30.966Z,99.90
2023-05-25T03:25:58.560Z,99.90
2023-05-25T03:28:26.133Z,99.90
2023-05-25T03:30:53.699Z,99.90
2023-05-25T03:33:21.333Z,99.90
2023-05-25T03:35:48.908Z,99.90
2023-05-25T03:38:16.523Z,99.90
2023-05-25T03:40:44.113Z,99.90
2023-05-25T03:43:11.707Z,99.90
2023-05-25T03:45:39.280Z,99.90
2023-05-25T03:48:06.866Z,99.90
2023-05-25T03:50:34.435Z,99.90
2023-05-25T03:53:02.028Z,99.90
2023-05-25T03:55:30.407Z,99.90
2023-05-25T03:57:58.716Z,99.90
2023-05-25T04:00:27.184Z,99.90
2023-05-25T04:02:55.779Z,99.90
2023-05-25T04:05:23.384Z,99.90
2023-05-25T04:07:51.074Z,99.90
2023-05-25T04:10:19.695Z,99.90
2023-05-25T04:12:48.193Z,99.90
2023-05-25T04:15:15.788Z,99.90
2023-05-25T04:17:43.386Z,99.90
2023-05-25T04:20:11.001Z,99.90
2023-05-25T04:22:38.510Z,99.90
2023-05-25T04:25:08.899Z,99.90
2023-05-25T04:27:36.452Z,99.90
2023-05-25T04:30:04.027Z,99.90
2023-05-25T04:32:31.669Z,99.90
2023-05-25T04:35:00.005Z,99.90
2023-05-25T04:37:27.697Z,99.90
2023-05-25T04:39:55.195Z,99.90
2023-05-25T04:42:22.762Z,99.90
2023-05-25T04:44:50.416Z,99.90
2023-05-25T04:47:18.115Z,99.90
2023-05-25T04:49:45.681Z,99.90
2023-05-25T04:52:13.330Z,99.90
2023-05-25T04:54:41.047Z,99.90
2023-05-25T04:57:08.602Z,99.90
2023-05-25T04:59:36.169Z,99.90
2023-05-25T05:02:03.778Z,99.90
2023-05-25T05:04:31.363Z,99.90
2023-05-25T05:06:59.189Z,99.90
2023-05-25T05:09:27.392Z,99.90
2023-05-25T05:11:54.961Z,99.90
2023-05-25T05:14:22.516Z,99.90
2023-05-25T05:16:50.968Z,99.90
2023-05-25T05:19:18.515Z,99.90
2023-05-25T05:21:46.106Z,99.90
2023-05-25T05:24:13.694Z,99.90
2023-05-25T05:26:56.356Z,99.90
2023-05-25T05:29:09.634Z,99.90
2023-05-25T05:31:37.313Z,99.90
2023-05-25T05:34:04.895Z,99.90
2023-05-25T05:36:38.980Z,99.90
2023-05-25T05:39:00.014Z,99.90
2023-05-25T05:41:27.583Z,99.90
2023-05-25T05:43:55.220Z,99.90
2023-05-25T05:46:23.677Z,99.90
2023-05-25T05:48:51.251Z,99.90
2023-05-25T05:51:18.920Z,99.90
2023-05-25T05:53:46.533Z,99.90
2023-05-25T05:56:19.800Z,99.90
2023-05-25T05:58:48.156Z,99.90
2023-05-25T06:01:15.769Z,99.90
2023-05-25T06:03:43.360Z,99.90
2023-05-25T06:06:11.042Z,99.90
2023-05-25T06:08:38.583Z,99.90
2023-05-25T06:11:06.965Z,99.90
2023-05-25T06:13:34.560Z,99.90
2023-05-25T06:16:02.280Z,99.90
2023-05-25T06:18:29.783Z,99.90
2023-05-25T06:20:57.360Z,99.90
2023-05-25T06:23:24.975Z,99.90
2023-05-25T06:25:52.555Z,99.90
2023-05-25T06:28:20.182Z,99.90
2023-05-25T06:30:48.272Z,99.90
2023-05-25T06:33:15.828Z,99.90
2023-05-25T06:35:43.550Z,99.90
2023-05-25T06:38:11.774Z,99.90
2023-05-25T06:40:40.120Z,99.90
2023-05-25T06:43:07.702Z,99.90
2023-05-25T06:45:35.323Z,99.90
2023-05-25T06:48:02.927Z,99.90
2023-05-25T06:50:30.543Z,99.90
2023-05-25T06:53:00.346Z,99.90
2023-05-25T06:55:25.799Z,99.90
2023-05-25T06:57:53.392Z,99.90
2023-05-25T07:00:21.061Z,99.90
2023-05-25T07:02:48.669Z,99.90
2023-05-25T07:05:16.288Z,99.90
2023-05-25T07:07:43.888Z,99.90
2023-05-25T07:10:11.445Z,99.90
2023-05-25T07:12:39.030Z,99.90
2023-05-25T07:15:07.554Z,99.90
2023-05-25T07:17:35.129Z,99.90
2023-05-25T07:20:02.720Z,99.90
2023-05-25T07:22:30.354Z,99.90
2023-05-25T07:24:58.287Z,99.90
2023-05-25T07:27:26.625Z,99.90
2023-05-25T07:29:54.268Z,99.90
2023-05-25T07:32:21.880Z,99.90
2023-05-25T07:34:49.443Z,99.90
2023-05-25T07:37:17.062Z,99.90
2023-05-25T07:39:44.651Z,99.90
2023-05-25T07:42:12.253Z,99.90
2023-05-25T07:44:40.636Z,99.90
2023-05-25T07:47:08.239Z,99.90
2023-05-25T07:49:35.844Z,99.50
2023-05-25T07:52:03.471Z,99.40
2023-05-25T07:54:31.046Z,98.90
2023-05-25T07:56:58.625Z,98.60
2023-05-25T07:59:26.346Z,98.70
2023-05-25T08:01:53.996Z,98.60
2023-05-25T08:04:21.667Z,98.60
2023-05-25T08:06:49.228Z,97.80
2023-05-25T08:09:16.804Z,97.10
2023-05-25T08:11:44.473Z,96.50
2023-05-25T08:14:12.080Z,96.20
2023-05-25T08:16:39.673Z,96.10
2023-05-25T08:19:07.232Z,95.80
2023-05-25T08:21:37.662Z,95.40
2023-05-25T08:24:05.275Z,94.90
2023-05-25T08:26:52.345Z,94.70
2023-05-25T08:29:00.459Z,94.50
2023-05-25T08:31:28.070Z,94.00
2023-05-25T08:33:55.602Z,93.60
2023-05-25T08:36:23.234Z,93.10
2023-05-25T08:38:50.848Z,93.00
2023-05-25T08:41:19.208Z,92.20
2023-05-25T08:43:46.801Z,92.20
2023-05-25T08:46:14.389Z,91.30
2023-05-25T08:48:42.873Z,91.10
2023-05-25T08:51:11.005Z,90.60
2023-05-25T08:53:37.214Z,90.70
2023-05-25T08:56:07.885Z,90.80
2023-05-25T08:58:35.480Z,90.40
2023-05-25T09:01:03.066Z,90.20
2023-05-25T09:03:30.687Z,89.20
2023-05-25T09:05:58.285Z,88.40
2023-05-25T09:08:25.874Z,87.40
2023-05-25T09:10:53.470Z,86.80
2023-05-25T09:13:23.082Z,86.40
2023-05-25T09:15:49.460Z,86.30
2023-05-25T09:18:17.145Z,85.90
2023-05-25T09:20:47.042Z,86.20
2023-05-25T09:23:12.281Z,86.40
2023-05-25T09:25:39.883Z,85.70
2023-05-25T09:28:24.793Z,85.40
2023-05-25T09:30:35.219Z,85.00
2023-05-25T09:33:11.876Z,84.30
2023-05-25T09:35:39.429Z,83.50
2023-05-25T09:38:07.197Z,82.40
2023-05-25T09:40:34.679Z,82.40
2023-05-25T09:43:04.979Z,82.80
2023-05-25T09:45:32.603Z,81.50
2023-05-25T09:48:01.023Z,82.00
2023-05-25T09:50:29.373Z,82.00
2023-05-25T09:52:56.928Z,82.00
2023-05-25T09:55:25.328Z,81.10
2023-05-25T09:57:55.643Z,81.10
2023-05-25T10:00:23.147Z,80.90
2023-05-25T10:02:50.798Z,80.90
2023-05-25T10:07:40.683Z,79.00
2023-05-25T10:10:09.057Z,79.30
2023-05-25T10:12:37.406Z,78.10
2023-05-25T10:15:04.963Z,78.00
2023-05-25T10:17:32.605Z,78.10
2023-05-25T10:20:02.977Z,78.40
2023-05-25T10:22:33.499Z,78.40
2023-05-25T10:25:07.726Z,76.80
2023-05-25T10:27:41.965Z,75.80
2023-05-25T10:30:09.566Z,75.70
2023-05-25T10:32:40.073Z,73.10
2023-05-25T10:35:08.415Z,74.00
2023-05-25T10:37:36.000Z,74.00
2023-05-25T10:40:03.661Z,73.60
2023-05-25T10:42:31.233Z,72.90
2023-05-25T10:44:58.814Z,72.10
2023-05-25T10:47:26.518Z,71.10
2023-05-25T10:49:57.123Z,71.60
2023-05-25T10:52:30.465Z,70.60
2023-05-25T10:54:58.106Z,70.70
2023-05-25T10:57:25.602Z,70.20
2023-05-25T10:59:53.216Z,70.00
2023-05-25T11:02:23.749Z,70.10
2023-05-25T11:04:51.135Z,70.70
2023-05-25T11:07:18.756Z,71.00
2023-05-25T11:09:46.367Z,69.90
2023-05-25T11:12:22.967Z,69.70
2023-05-25T11:15:11.989Z,69.20
2023-05-25T11:17:45.637Z,68.50
2023-05-25T11:20:13.242Z,67.40
2023-05-25T11:22:40.742Z,67.50
2023-05-25T11:25:26.407Z,67.50
2023-05-25T11:27:53.983Z,67.10
2023-05-25T11:30:21.565Z,67.40
2023-05-25T11:32:50.005Z,65.30
2023-05-25T11:35:17.546Z,65.30
2023-05-25T11:37:45.143Z,63.70
2023-05-25T11:40:12.792Z,63.60
2023-05-25T11:42:40.381Z,63.80
2023-05-25T11:45:08.046Z,63.80
2023-05-25T11:47:36.013Z,64.10
2023-05-25T11:50:03.276Z,63.50
2023-05-25T11:52:30.829Z,63.30
2023-05-25T11:54:59.219Z,62.00
2023-05-25T11:57:27.552Z,61.90
2023-05-25T11:59:55.137Z,61.90
2023-05-25T12:02:23.696Z,61.40
2023-05-25T12:05:00.418Z,61.40
2023-05-25T12:07:28.039Z,61.30
2023-05-25T12:10:10.587Z,60.80
2023-05-25T12:12:44.412Z,59.20
2023-05-25T12:15:12.047Z,59.20
2023-05-25T12:17:43.225Z,59.80
2023-05-25T12:20:10.817Z,59.80
2023-05-25T12:22:38.401Z,59.80
2023-05-25T12:25:05.948Z,59.60
2023-05-25T12:27:33.575Z,59.40
2023-05-25T12:30:01.155Z,59.70
2023-05-25T12:32:28.782Z,59.10
2023-05-25T12:35:03.056Z,59.20
2023-05-25T12:37:31.402Z,58.90
2023-05-25T12:40:00.200Z,58.90
2023-05-25T12:42:26.584Z,59.00
2023-05-25T12:44:56.864Z,58.70
2023-05-25T12:47:24.434Z,59.40
2023-05-25T12:50:10.950Z,58.10
2023-05-25T12:52:39.437Z,58.00
2023-05-25T12:55:27.464Z,57.90
2023-05-25T12:57:54.892Z,57.40
2023-05-25T13:00:22.474Z,57.40
2023-05-25T13:02:50.944Z,57.90
2023-05-25T13:05:19.419Z,57.60
2023-05-25T13:07:46.902Z,57.60
2023-05-25T13:10:15.302Z,57.30
2023-05-25T13:12:43.604Z,56.70
2023-05-25T13:15:11.189Z,56.70
2023-05-25T13:17:38.839Z,56.00
2023-05-25T13:20:06.616Z,55.90
2023-05-25T13:22:34.056Z,55.20
2023-05-25T13:25:01.667Z,55.10
2023-05-25T13:27:30.028Z,54.90
2023-05-25T13:29:57.595Z,54.90
2023-05-25T13:32:26.030Z,55.50
2023-05-25T13:34:53.574Z,55.00
2023-05-25T13:37:21.159Z,54.60
2023-05-25T13:39:48.761Z,54.60
2023-05-25T13:42:16.347Z,54.80
2023-05-25T13:44:43.931Z,55.10
2023-05-25T13:47:11.630Z,54.80
2023-05-25T13:49:39.156Z,54.70
2023-05-25T13:52:06.732Z,54.80
2023-05-25T13:54:34.345Z,54.70
2023-05-25T13:57:01.934Z,54.30
2023-05-25T13:59:29.504Z,54.70
2023-05-25T14:01:57.321Z,54.30
2023-05-25T14:04:24.849Z,53.90
2023-05-25T14:06:53.191Z,53.20
2023-05-25T14:09:20.848Z,53.20
2023-05-25T14:11:48.424Z,53.30
2023-05-25T14:14:30.048Z,53.30
2023-05-25T14:16:44.439Z,53.20
2023-05-25T14:19:11.992Z,53.10
2023-05-25T14:21:39.572Z,53.00
2023-05-25T14:24:07.269Z,52.70
2023-05-25T14:26:35.612Z,52.60
2023-05-25T14:29:03.245Z,53.00
2023-05-25T14:31:30.921Z,53.10
2023-05-25T14:33:59.210Z,52.70
2023-05-25T14:36:26.789Z,52.70
2023-05-25T14:38:54.421Z,52.50
2023-05-25T14:41:22.009Z,52.20
2023-05-25T14:43:49.586Z,51.90
2023-05-25T14:46:18.030Z,51.20
2023-05-25T14:48:45.573Z,51.10
2023-05-25T14:51:13.139Z,51.30
2023-05-25T14:53:40.806Z,51.40
2023-05-25T14:56:10.484Z,51.30
2023-05-25T14:58:36.007Z,51.40
2023-05-25T15:01:04.335Z,50.20
2023-05-25T15:03:32.848Z,49.70
2023-05-25T15:06:00.281Z,49.70
2023-05-25T15:08:28.670Z,49.60
2023-05-25T15:10:57.008Z,49.60
2023-05-25T15:13:24.793Z,49.60
2023-05-25T15:15:53.189Z,48.70
2023-05-25T15:18:21.532Z,48.50
2023-05-25T15:20:49.158Z,48.50
2023-05-25T15:23:16.718Z,48.90
2023-05-25T15:25:44.324Z,48.60
2023-05-25T15:28:11.893Z,48.20
2023-05-25T15:30:40.279Z,48.00
2023-05-25T15:33:08.637Z,48.30
2023-05-25T15:35:36.204Z,47.90
2023-05-25T15:38:03.821Z,48.00
2023-05-25T15:40:31.440Z,47.90
2023-05-25T15:42:59.006Z,47.20
2023-05-25T15:45:26.640Z,47.10
2023-05-25T15:47:54.255Z,47.40
2023-05-25T15:50:21.767Z,47.60
2023-05-25T15:52:49.388Z,47.50
2023-05-25T15:55:16.966Z,47.60
2023-05-25T15:57:44.552Z,47.90
2023-05-25T16:00:13.189Z,46.90
2023-05-25T16:02:40.812Z,46.80
2023-05-25T16:05:08.376Z,46.60
2023-05-25T16:07:36.042Z,46.70
2023-05-25T16:10:03.619Z,46.70
2023-05-25T16:12:31.183Z,46.80
2023-05-25T16:14:58.822Z,47.00
2023-05-25T16:17:28.153Z,47.50
2023-05-25T16:19:55.854Z,47.50
2023-05-25T16:22:23.420Z,47.60
2023-05-25T16:24:51.770Z,47.70
2023-05-25T16:27:19.394Z,47.70
2023-05-25T16:29:47.745Z,47.50
2023-05-25T16:32:16.133Z,47.70
2023-05-25T16:34:44.486Z,48.10
2023-05-25T16:37:12.100Z,47.80
2023-05-25T16:39:39.676Z,47.80
2023-05-25T16:42:07.260Z,47.40
2023-05-25T16:44:34.873Z,47.70
2023-05-25T16:47:02.448Z,47.70
2023-05-25T16:49:30.035Z,47.60
2023-05-25T16:51:57.655Z,47.70
2023-05-25T16:54:25.236Z,47.80
2023-05-25T16:56:52.815Z,47.80
2023-05-25T16:59:20.433Z,47.90
2023-05-25T17:01:48.101Z,48.10
2023-05-25T17:04:15.593Z,47.90
2023-05-25T17:06:43.222Z,47.90
2023-05-25T17:09:10.782Z,48.30
2023-05-25T17:11:38.377Z,48.60
2023-05-25T17:14:06.005Z,48.70
2023-05-25T17:16:33.606Z,48.80
2023-05-25T17:19:01.173Z,48.50
2023-05-25T17:21:28.827Z,48.60
2023-05-25T17:23:56.399Z,48.60
2023-05-25T17:26:24.759Z,49.10
2023-05-25T17:28:52.536Z,49.10
2023-05-25T17:31:20.883Z,49.80
2023-05-25T17:33:48.445Z,49.70
2023-05-25T17:36:16.198Z,49.80
2023-05-25T17:38:43.810Z,50.30
2023-05-25T17:41:12.130Z,51.40
2023-05-25T17:43:39.762Z,51.40
2023-05-25T17:46:07.445Z,52.00
2023-05-25T17:48:34.916Z,52.70
2023-05-25T17:51:02.536Z,53.50
2023-05-25T17:53:30.135Z,54.00
2023-05-25T17:55:57.727Z,54.40
2023-05-25T17:58:25.353Z,54.80
2023-05-25T18:00:53.034Z,55.20
2023-05-25T18:03:20.627Z,55.60
2023-05-25T18:05:48.892Z,56.50
2023-05-25T18:08:17.247Z,57.00
2023-05-25T18:10:44.824Z,56.90
2023-05-25T18:13:12.456Z,57.50
2023-05-25T18:15:40.044Z,58.10
2023-05-25T18:18:07.713Z,58.70
2023-05-25T18:20:35.315Z,59.40
2023-05-25T18:23:02.842Z,59.30
2023-05-25T18:25:30.419Z,59.50
2023-05-25T18:27:58.089Z,59.90
2023-05-25T18:30:26.408Z,61.20
2023-05-25T18:32:54.067Z,61.10
2023-05-25T18:35:22.374Z,62.50
2023-05-25T18:37:50.749Z,62.50
2023-05-25T18:40:18.319Z,62.50
2023-05-25T18:42:46.714Z,64.00
2023-05-25T18:45:14.283Z,64.00
2023-05-25T18:47:41.923Z,64.50
2023-05-25T18:50:09.554Z,64.90
2023-05-25T18:52:37.127Z,65.40
2023-05-25T18:55:05.577Z,66.10
2023-05-25T18:57:33.196Z,66.10
2023-05-25T19:00:00.791Z,66.50
2023-05-25T19:02:28.430Z,67.00
2023-05-25T19:04:55.953Z,66.90
2023-05-25T19:07:24.299Z,67.80
2023-05-25T19:09:51.938Z,67.70
2023-05-25T19:12:20.303Z,68.60
2023-05-25T19:14:47.883Z,68.50
2023-05-25T19:17:15.479Z,69.00
2023-05-25T19:19:43.096Z,69.30
2023-05-25T19:22:10.677Z,69.60
2023-05-25T19:24:42.416Z,69.20
2023-05-25T19:27:06.641Z,69.40
2023-05-25T19:29:34.969Z,69.50
2023-05-25T19:32:02.631Z,69.40
2023-05-25T19:34:30.163Z,69.60
2023-05-25T19:37:10.222Z,69.80
2023-05-25T19:39:26.232Z,70.20
2023-05-25T19:41:54.404Z,70.90
2023-05-25T19:44:21.976Z,71.00
2023-05-25T19:46:49.558Z,70.80
2023-05-25T19:49:17.171Z,71.20
2023-05-25T19:51:44.745Z,71.50
2023-05-25T19:54:12.328Z,71.30
2023-05-25T19:56:40.727Z,71.80
2023-05-25T19:59:07.553Z,72.20
2023-05-25T20:01:35.165Z,72.60
2023-05-25T20:04:03.550Z,73.40
2023-05-25T20:06:31.122Z,73.40
2023-05-25T20:08:58.713Z,73.80
2023-05-25T20:11:26.321Z,74.20
2023-05-25T20:13:53.925Z,74.60
2023-05-25T20:16:21.565Z,75.10
2023-05-25T20:18:49.885Z,75.80
2023-05-25T20:21:18.231Z,75.70
2023-05-25T20:23:45.824Z,75.70
2023-05-25T20:26:13.428Z,76.10
2023-05-25T20:28:41.011Z,76.50
2023-05-25T20:31:08.590Z,76.90
2023-05-25T20:33:36.235Z,77.30
2023-05-25T20:36:03.816Z,77.90
2023-05-25T20:38:32.153Z,77.90
2023-05-25T20:40:59.866Z,77.90
2023-05-25T20:43:28.211Z,78.50
2023-05-25T20:45:55.863Z,78.40
2023-05-25T20:48:23.458Z,78.70
2023-05-25T20:50:51.787Z,79.20
2023-05-25T20:53:19.361Z,79.20
2023-05-25T20:55:47.153Z,79.50
2023-05-25T20:58:14.725Z,79.80
2023-05-25T21:00:43.067Z,80.20
2023-05-25T21:03:10.781Z,80.20
2023-05-25T21:05:38.269Z,80.50
2023-05-25T21:08:05.837Z,80.90
2023-05-25T21:10:33.474Z,81.30
2023-05-25T21:13:01.040Z,81.50
2023-05-25T21:15:28.612Z,81.80
2023-05-25T21:17:56.314Z,82.10
2023-05-25T21:20:24.736Z,82.60
2023-05-25T21:22:52.219Z,82.50
2023-05-25T21:25:20.008Z,82.80
2023-05-25T21:27:47.627Z,82.80
2023-05-25T21:30:15.934Z,82.70
2023-05-25T21:32:43.668Z,82.70
2023-05-25T21:35:11.149Z,82.20
2023-05-25T21:37:38.738Z,82.40
2023-05-25T21:40:06.463Z,82.90
2023-05-25T21:42:34.054Z,83.40
2023-05-25T21:45:02.420Z,83.60
2023-05-25T21:47:30.088Z,83.60
2023-05-25T21:49:57.611Z,84.90
2023-05-25T21:52:25.180Z,84.60
2023-05-25T21:54:52.845Z,84.20
2023-05-25T21:57:20.420Z,84.50
2023-05-25T21:59:47.981Z,84.90
2023-05-25T22:02:15.680Z,85.30
2023-05-25T22:04:43.216Z,85.80
2023-05-25T22:07:11.596Z,85.50
2023-05-25T22:09:39.339Z,85.40
2023-05-25T22:12:06.979Z,85.80
2023-05-25T22:14:34.519Z,86.30
2023-05-25T22:17:02.218Z,86.50
2023-05-25T22:19:30.483Z,86.40
2023-05-25T22:21:58.060Z,86.40
2023-05-25T22:24:25.692Z,87.60
2023-05-25T22:26:53.260Z,87.50
2023-05-25T22:29:20.855Z,87.80
2023-05-25T22:31:49.234Z,88.80
2023-05-25T22:34:17.595Z,89.00
2023-05-25T22:36:45.158Z,88.30
2023-05-25T22:39:12.771Z,88.50
2023-05-25T22:41:40.355Z,88.70
2023-05-25T22:44:07.959Z,88.90
2023-05-25T22:46:35.616Z,89.40
2023-05-25T22:49:03.156Z,89.90
2023-05-25T22:51:30.740Z,90.20
2023-05-25T22:53:59.143Z,90.40
2023-05-25T22:56:26.715Z,90.40
2023-05-25T22:58:54.280Z,90.70
2023-05-25T23:01:21.961Z,90.90
2023-05-25T23:03:49.740Z,91.10
2023-05-25T23:06:17.254Z,91.20
2023-05-25T23:08:44.891Z,91.30
2023-05-25T23:11:13.237Z,91.70
2023-05-25T23:13:40.801Z,91.70
2023-05-25T23:16:08.484Z,91.90
2023-05-25T23:18:36.033Z,92.20
2023-05-25T23:21:04.400Z,92.60
2023-05-25T23:23:32.161Z,92.60
2023-05-25T23:25:59.747Z,92.40
2023-05-25T23:28:28.139Z,92.50
2023-05-25T23:30:55.749Z,92.40
2023-05-25T23:33:23.326Z,92.60
2023-05-25T23:35:51.680Z,92.80
2023-05-25T23:38:19.303Z,92.70
2023-05-25T23:40:46.902Z,92.60
2023-05-25T23:43:14.460Z,92.90
2023-05-25T23:45:42.133Z,93.10
2023-05-25T23:48:09.719Z,93.30
2023-05-25T23:50:37.279Z,93.60
2023-05-25T23:53:04.863Z,93.90
2023-05-25T23:55:32.429Z,94.10
2023-05-25T23:58:00.044Z,94.40
